sensor_id;sensor_type;location;lat;lon;timestamp;pressure;altitude;pressure_sealevel;temperature;humidity
48680;BME280;34475;51.658;5.634;2022-07-29T00:00:00;101410;;;20.2;86.5
48680;BME280;34475;51.658;5.634;2022-07-29T00:01:00;101400;;;20.1;87.1
48680;BME280;34475;51.658;5.634;2022-07-29T00:02:00;101400;;;20.1;87.1
48680;BME280;34475;51.658;5.634;2022-07-29T00:03:00;101400;;;20.1;87.0
48680;BME280;34475;51.658;5.634;2022-07-29T00:04:00;101400;;;20.1;87.0
48680;BME280;34475;51.658;5.634;2022-07-29T00:05:00;101400;;;20.1;87.3
48680;BME280;34475;51.658;5.634;2022-07-29T00:06:00;101400;;;20.1;87.3
48680;BME280;34475;51.658;5.634;2022-07-29T00:07:00;101390;;;20.0;87.6
48680;BME280;34475;51.658;5.634;2022-07-29T00:08:00;101390;;;20.0;87.6
48680;BME280;34475;51.658;5.634;2022-07-29T00:09:00;101390;;;20.2;87.0
48680;BME280;34475;51.658;5.634;2022-07-29T00:10:00;101390;;;20.2;87.0
48680;BME280;34475;51.658;5.634;2022-07-29T00:11:00;101390;;;20.1;87.4
48680;BME280;34475;51.658;5.634;2022-07-29T00:12:00;101390;;;20.1;87.4
48680;BME280;34475;51.658;5.634;2022-07-29T00:13:00;101390;;;20.1;88.1
48680;BME280;34475;51.658;5.634;2022-07-29T00:14:00;101390;;;20.1;88.1
48680;BME280;34475;51.658;5.634;2022-07-29T00:15:00;101390;;;20.0;88.4
48680;BME280;34475;51.658;5.634;2022-07-29T00:16:00;101390;;;20.0;88.4
48680;BME280;34475;51.658;5.634;2022-07-29T00:17:00;101390;;;20.0;88.2
48680;BME280;34475;51.658;5.634;2022-07-29T00:18:00;101390;;;20.0;88.2
48680;BME280;34475;51.658;5.634;2022-07-29T00:19:00;101390;;;20.0;88.4
48680;BME280;34475;51.658;5.634;2022-07-29T00:20:00;101390;;;20.0;88.4
48680;BME280;34475;51.658;5.634;2022-07-29T00:21:00;101380;;;19.9;89.4
48680;BME280;34475;51.658;5.634;2022-07-29T00:22:00;101380;;;19.9;89.4
48680;BME280;34475;51.658;5.634;2022-07-29T00:23:00;101380;;;19.9;89.3
48680;BME280;34475;51.658;5.634;2022-07-29T00:24:00;101380;;;19.9;89.3
48680;BME280;34475;51.658;5.634;2022-07-29T00:25:00;101390;;;19.8;90.1
48680;BME280;34475;51.658;5.634;2022-07-29T00:26:00;101390;;;19.8;90.1
48680;BME280;34475;51.658;5.634;2022-07-29T00:27:00;101380;;;19.9;89.6
48680;BME280;34475;51.658;5.634;2022-07-29T00:28:00;101380;;;19.9;89.6
48680;BME280;34475;51.658;5.634;2022-07-29T00:29:00;101380;;;19.7;90.8
48680;BME280;34475;51.658;5.634;2022-07-29T00:30:00;101380;;;19.7;90.8
48680;BME280;34475;51.658;5.634;2022-07-29T00:31:00;101380;;;19.8;90.5
48680;BME280;34475;51.658;5.634;2022-07-29T00:32:00;101380;;;19.8;90.5
48680;BME280;34475;51.658;5.634;2022-07-29T00:33:00;101380;;;19.9;89.6
48680;BME280;34475;51.658;5.634;2022-07-29T00:34:00;101380;;;19.9;89.6
48680;BME280;34475;51.658;5.634;2022-07-29T00:35:00;101380;;;19.9;89.8
48680;BME280;34475;51.658;5.634;2022-07-29T00:36:00;101380;;;19.9;89.8
48680;BME280;34475;51.658;5.634;2022-07-29T00:37:00;101370;;;19.8;90.4
48680;BME280;34475;51.658;5.634;2022-07-29T00:38:00;101370;;;19.8;90.4
48680;BME280;34475;51.658;5.634;2022-07-29T00:39:00;101370;;;19.8;90.3
48680;BME280;34475;51.658;5.634;2022-07-29T00:40:00;101370;;;19.8;90.3
48680;BME280;34475;51.658;5.634;2022-07-29T00:41:00;101370;;;20.0;88.9
48680;BME280;34475;51.658;5.634;2022-07-29T00:42:01;101370;;;20.0;88.9
48680;BME280;34475;51.658;5.634;2022-07-29T00:43:00;101370;;;20.0;89.0
48680;BME280;34475;51.658;5.634;2022-07-29T00:44:00;101370;;;20.0;89.0
48680;BME280;34475;51.658;5.634;2022-07-29T00:45:00;101370;;;19.8;90.2
48680;BME280;34475;51.658;5.634;2022-07-29T00:46:00;101370;;;19.8;90.2
48680;BME280;34475;51.658;5.634;2022-07-29T00:47:00;101370;;;19.8;91.5
48680;BME280;34475;51.658;5.634;2022-07-29T00:48:00;101370;;;19.8;91.5
48680;BME280;34475;51.658;5.634;2022-07-29T00:49:00;101370;;;19.6;92.5
48680;BME280;34475;51.658;5.634;2022-07-29T00:50:00;101370;;;19.6;92.5
48680;BME280;34475;51.658;5.634;2022-07-29T00:51:01;101380;;;19.8;91.8
48680;BME280;34475;51.658;5.634;2022-07-29T00:52:00;101380;;;19.8;91.8
48680;BME280;34475;51.658;5.634;2022-07-29T00:53:00;101380;;;19.8;91.5
48680;BME280;34475;51.658;5.634;2022-07-29T00:54:00;101380;;;19.8;91.5
48680;BME280;34475;51.658;5.634;2022-07-29T00:55:00;101380;;;19.8;91.7
48680;BME280;34475;51.658;5.634;2022-07-29T00:56:00;101380;;;19.8;91.7
48680;BME280;34475;51.658;5.634;2022-07-29T00:57:00;101380;;;19.8;91.9
48680;BME280;34475;51.658;5.634;2022-07-29T00:58:00;101380;;;19.8;91.9
48680;BME280;34475;51.658;5.634;2022-07-29T00:59:00;101380;;;19.8;91.9
48680;BME280;34475;51.658;5.634;2022-07-29T01:00:00;101380;;;19.8;91.9
48680;BME280;34475;51.658;5.634;2022-07-29T01:01:00;101390;;;19.6;93.4
48680;BME280;34475;51.658;5.634;2022-07-29T01:02:00;101390;;;19.6;93.4
48680;BME280;34475;51.658;5.634;2022-07-29T01:03:00;101390;;;19.5;95.0
48680;BME280;34475;51.658;5.634;2022-07-29T01:04:00;101390;;;19.5;95.0
48680;BME280;34475;51.658;5.634;2022-07-29T01:05:00;101390;;;19.4;95.3
48680;BME280;34475;51.658;5.634;2022-07-29T01:06:00;101390;;;19.4;95.3
48680;BME280;34475;51.658;5.634;2022-07-29T01:07:01;101390;;;19.4;96.8
48680;BME280;34475;51.658;5.634;2022-07-29T01:08:00;101390;;;19.4;96.8
48680;BME280;34475;51.658;5.634;2022-07-29T01:09:00;101390;;;19.4;96.7
48680;BME280;34475;51.658;5.634;2022-07-29T01:10:00;101390;;;19.4;96.7
48680;BME280;34475;51.658;5.634;2022-07-29T01:11:00;101390;;;19.5;94.5
48680;BME280;34475;51.658;5.634;2022-07-29T01:12:00;101390;;;19.5;94.5
48680;BME280;34475;51.658;5.634;2022-07-29T01:13:00;101400;;;19.4;95.8
48680;BME280;34475;51.658;5.634;2022-07-29T01:14:00;101400;;;19.4;95.8
48680;BME280;34475;51.658;5.634;2022-07-29T01:15:00;101400;;;19.4;96.1
48680;BME280;34475;51.658;5.634;2022-07-29T01:16:03;101400;;;19.4;96.1
48680;BME280;34475;51.658;5.634;2022-07-29T01:17:02;101410;;;19.6;93.6
48680;BME280;34475;51.658;5.634;2022-07-29T01:19:06;101420;;;19.6;93.9
48680;BME280;34475;51.658;5.634;2022-07-29T01:21:07;101440;;;19.6;94.5
48680;BME280;34475;51.658;5.634;2022-07-29T01:22:01;101440;;;19.6;94.5
48680;BME280;34475;51.658;5.634;2022-07-29T01:25:03;101450;;;19.7;94.1
48680;BME280;34475;51.658;5.634;2022-07-29T01:29:09;101430;;;19.4;97.5
48680;BME280;34475;51.658;5.634;2022-07-29T01:30:00;101430;;;19.4;97.5
48680;BME280;34475;51.658;5.634;2022-07-29T01:31:00;101420;;;19.5;96.7
48680;BME280;34475;51.658;5.634;2022-07-29T01:33:01;101420;;;19.6;95.5
48680;BME280;34475;51.658;5.634;2022-07-29T01:34:01;101420;;;19.6;95.5
48680;BME280;34475;51.658;5.634;2022-07-29T01:36:01;101430;;;19.7;95.0
48680;BME280;34475;51.658;5.634;2022-07-29T01:37:03;101420;;;19.4;100.0
48680;BME280;34475;51.658;5.634;2022-07-29T01:38:01;101420;;;19.4;100.0
48680;BME280;34475;51.658;5.634;2022-07-29T01:39:05;101410;;;19.4;100.0
48680;BME280;34475;51.658;5.634;2022-07-29T01:40:00;101410;;;19.4;100.0
48680;BME280;34475;51.658;5.634;2022-07-29T01:41:08;101400;;;19.1;100.0
48680;BME280;34475;51.658;5.634;2022-07-29T01:43:00;101400;;;19.2;100.0
48680;BME280;34475;51.658;5.634;2022-07-29T01:44:01;101400;;;19.2;100.0
48680;BME280;34475;51.658;5.634;2022-07-29T01:46:01;101390;;;19.4;98.8
48680;BME280;34475;51.658;5.634;2022-07-29T01:47:01;101390;;;19.1;100.0
48680;BME280;34475;51.658;5.634;2022-07-29T01:48:00;101390;;;19.1;100.0
48680;BME280;34475;51.658;5.634;2022-07-29T01:49:02;101380;;;19.1;100.0
48680;BME280;34475;51.658;5.634;2022-07-29T01:50:00;101380;;;19.1;100.0
48680;BME280;34475;51.658;5.634;2022-07-29T01:51:08;101380;;;19.2;100.0
48680;BME280;34475;51.658;5.634;2022-07-29T01:52:03;101380;;;19.2;100.0
48680;BME280;34475;51.658;5.634;2022-07-29T01:53:01;101370;;;19.2;100.0
48680;BME280;34475;51.658;5.634;2022-07-29T01:55:03;101360;;;19.0;100.0
48680;BME280;34475;51.658;5.634;2022-07-29T01:56:00;101360;;;19.0;100.0
48680;BME280;34475;51.658;5.634;2022-07-29T01:57:00;101350;;;18.8;100.0
48680;BME280;34475;51.658;5.634;2022-07-29T01:58:00;101350;;;18.8;100.0
48680;BME280;34475;51.658;5.634;2022-07-29T01:59:00;101340;;;18.8;100.0
48680;BME280;34475;51.658;5.634;2022-07-29T02:00:00;101340;;;18.8;100.0
48680;BME280;34475;51.658;5.634;2022-07-29T02:01:00;101340;;;18.7;100.0
48680;BME280;34475;51.658;5.634;2022-07-29T02:02:00;101340;;;18.7;100.0
48680;BME280;34475;51.658;5.634;2022-07-29T02:03:02;101330;;;18.8;100.0
48680;BME280;34475;51.658;5.634;2022-07-29T02:04:01;101330;;;18.8;100.0
48680;BME280;34475;51.658;5.634;2022-07-29T02:05:00;101330;;;18.9;100.0
48680;BME280;34475;51.658;5.634;2022-07-29T02:06:00;101330;;;18.9;100.0
48680;BME280;34475;51.658;5.634;2022-07-29T02:07:01;101330;;;18.6;100.0
48680;BME280;34475;51.658;5.634;2022-07-29T02:08:00;101330;;;18.6;100.0
48680;BME280;34475;51.658;5.634;2022-07-29T02:09:00;101320;;;18.5;100.0
48680;BME280;34475;51.658;5.634;2022-07-29T02:10:00;101320;;;18.5;100.0
48680;BME280;34475;51.658;5.634;2022-07-29T02:11:00;101320;;;18.2;100.0
48680;BME280;34475;51.658;5.634;2022-07-29T02:12:00;101320;;;18.2;100.0
48680;BME280;34475;51.658;5.634;2022-07-29T02:13:00;101320;;;18.0;100.0
48680;BME280;34475;51.658;5.634;2022-07-29T02:14:00;101320;;;18.0;100.0
48680;BME280;34475;51.658;5.634;2022-07-29T02:15:00;101310;;;17.9;100.0
48680;BME280;34475;51.658;5.634;2022-07-29T02:16:00;101310;;;17.9;100.0
48680;BME280;34475;51.658;5.634;2022-07-29T02:17:00;101310;;;17.9;100.0
48680;BME280;34475;51.658;5.634;2022-07-29T02:18:01;101310;;;17.9;100.0
48680;BME280;34475;51.658;5.634;2022-07-29T02:19:00;101310;;;17.8;100.0
48680;BME280;34475;51.658;5.634;2022-07-29T02:20:02;101310;;;17.8;100.0
48680;BME280;34475;51.658;5.634;2022-07-29T02:21:00;101310;;;17.8;100.0
48680;BME280;34475;51.658;5.634;2022-07-29T02:22:00;101310;;;17.8;100.0
48680;BME280;34475;51.658;5.634;2022-07-29T02:23:00;101310;;;17.9;100.0
48680;BME280;34475;51.658;5.634;2022-07-29T02:24:00;101310;;;17.9;100.0
48680;BME280;34475;51.658;5.634;2022-07-29T02:25:00;101320;;;17.9;100.0
48680;BME280;34475;51.658;5.634;2022-07-29T02:26:00;101320;;;17.9;100.0
48680;BME280;34475;51.658;5.634;2022-07-29T02:27:00;101310;;;18.0;100.0
48680;BME280;34475;51.658;5.634;2022-07-29T02:28:00;101310;;;18.0;100.0
48680;BME280;34475;51.658;5.634;2022-07-29T02:29:00;101310;;;17.9;100.0
48680;BME280;34475;51.658;5.634;2022-07-29T02:30:00;101310;;;17.9;100.0
48680;BME280;34475;51.658;5.634;2022-07-29T02:31:01;101310;;;17.9;100.0
48680;BME280;34475;51.658;5.634;2022-07-29T02:32:00;101310;;;17.9;100.0
48680;BME280;34475;51.658;5.634;2022-07-29T02:33:00;101310;;;17.8;100.0
48680;BME280;34475;51.658;5.634;2022-07-29T02:34:00;101310;;;17.8;100.0
48680;BME280;34475;51.658;5.634;2022-07-29T02:35:00;101310;;;17.9;100.0
48680;BME280;34475;51.658;5.634;2022-07-29T02:36:00;101310;;;17.9;100.0
48680;BME280;34475;51.658;5.634;2022-07-29T02:37:00;101310;;;17.8;100.0
48680;BME280;34475;51.658;5.634;2022-07-29T02:38:00;101310;;;17.8;100.0
48680;BME280;34475;51.658;5.634;2022-07-29T02:39:00;101310;;;17.7;100.0
48680;BME280;34475;51.658;5.634;2022-07-29T02:40:00;101310;;;17.7;100.0
48680;BME280;34475;51.658;5.634;2022-07-29T02:41:01;101310;;;17.6;100.0
48680;BME280;34475;51.658;5.634;2022-07-29T02:42:03;101310;;;17.6;100.0
48680;BME280;34475;51.658;5.634;2022-07-29T02:43:00;101310;;;17.4;100.0
48680;BME280;34475;51.658;5.634;2022-07-29T02:44:16;101310;;;17.4;100.0
48680;BME280;34475;51.658;5.634;2022-07-29T02:45:00;101310;;;17.1;100.0
48680;BME280;34475;51.658;5.634;2022-07-29T02:46:00;101310;;;17.1;100.0
48680;BME280;34475;51.658;5.634;2022-07-29T02:48:00;101310;;;16.9;100.0
48680;BME280;34475;51.658;5.634;2022-07-29T02:49:03;101300;;;16.9;100.0
48680;BME280;34475;51.658;5.634;2022-07-29T02:50:00;101300;;;16.9;100.0
48680;BME280;34475;51.658;5.634;2022-07-29T02:51:08;101300;;;17.0;100.0
48680;BME280;34475;51.658;5.634;2022-07-29T02:52:01;101300;;;17.0;100.0
48680;BME280;34475;51.658;5.634;2022-07-29T02:53:08;101290;;;16.7;100.0
48680;BME280;34475;51.658;5.634;2022-07-29T02:54:00;101290;;;16.7;100.0
48680;BME280;34475;51.658;5.634;2022-07-29T02:55:01;101290;;;16.6;100.0
48680;BME280;34475;51.658;5.634;2022-07-29T02:56:04;101290;;;16.6;100.0
48680;BME280;34475;51.658;5.634;2022-07-29T02:57:00;101280;;;16.5;100.0
48680;BME280;34475;51.658;5.634;2022-07-29T02:58:01;101280;;;16.5;100.0
48680;BME280;34475;51.658;5.634;2022-07-29T02:59:01;101280;;;16.5;100.0
48680;BME280;34475;51.658;5.634;2022-07-29T03:00:01;101280;;;16.5;100.0
48680;BME280;34475;51.658;5.634;2022-07-29T03:01:01;101280;;;16.5;100.0
48680;BME280;34475;51.658;5.634;2022-07-29T03:02:00;101280;;;16.5;100.0
48680;BME280;34475;51.658;5.634;2022-07-29T03:03:00;101280;;;16.7;100.0
48680;BME280;34475;51.658;5.634;2022-07-29T03:04:00;101280;;;16.7;100.0
48680;BME280;34475;51.658;5.634;2022-07-29T03:05:00;101290;;;16.8;100.0
48680;BME280;34475;51.658;5.634;2022-07-29T03:06:00;101290;;;16.8;100.0
48680;BME280;34475;51.658;5.634;2022-07-29T03:07:00;101290;;;16.8;100.0
48680;BME280;34475;51.658;5.634;2022-07-29T03:08:01;101290;;;16.8;100.0
48680;BME280;34475;51.658;5.634;2022-07-29T03:09:00;101290;;;16.8;100.0
48680;BME280;34475;51.658;5.634;2022-07-29T03:10:00;101290;;;16.8;100.0
48680;BME280;34475;51.658;5.634;2022-07-29T03:11:00;101290;;;16.8;100.0
48680;BME280;34475;51.658;5.634;2022-07-29T03:12:00;101290;;;16.8;100.0
48680;BME280;34475;51.658;5.634;2022-07-29T03:13:00;101300;;;16.9;100.0
48680;BME280;34475;51.658;5.634;2022-07-29T03:14:00;101300;;;16.9;100.0
48680;BME280;34475;51.658;5.634;2022-07-29T03:15:00;101300;;;16.9;100.0
48680;BME280;34475;51.658;5.634;2022-07-29T03:16:00;101300;;;16.9;100.0
48680;BME280;34475;51.658;5.634;2022-07-29T03:17:00;101290;;;16.9;100.0
48680;BME280;34475;51.658;5.634;2022-07-29T03:18:00;101290;;;16.9;100.0
48680;BME280;34475;51.658;5.634;2022-07-29T03:19:00;101290;;;17.0;100.0
48680;BME280;34475;51.658;5.634;2022-07-29T03:20:00;101290;;;17.0;100.0
48680;BME280;34475;51.658;5.634;2022-07-29T03:21:00;101290;;;17.0;100.0
48680;BME280;34475;51.658;5.634;2022-07-29T03:22:00;101290;;;17.0;100.0
48680;BME280;34475;51.658;5.634;2022-07-29T03:23:00;101290;;;16.8;100.0
48680;BME280;34475;51.658;5.634;2022-07-29T03:24:00;101290;;;16.8;100.0
48680;BME280;34475;51.658;5.634;2022-07-29T03:25:07;101290;;;16.9;100.0
48680;BME280;34475;51.658;5.634;2022-07-29T03:26:00;101290;;;16.9;100.0
48680;BME280;34475;51.658;5.634;2022-07-29T03:27:00;101290;;;16.9;100.0
48680;BME280;34475;51.658;5.634;2022-07-29T03:28:00;101290;;;16.9;100.0
48680;BME280;34475;51.658;5.634;2022-07-29T03:29:00;101300;;;16.9;100.0
48680;BME280;34475;51.658;5.634;2022-07-29T03:30:00;101300;;;16.9;100.0
48680;BME280;34475;51.658;5.634;2022-07-29T03:31:00;101310;;;17.1;100.0
48680;BME280;34475;51.658;5.634;2022-07-29T03:32:04;101310;;;17.1;100.0
48680;BME280;34475;51.658;5.634;2022-07-29T03:33:00;101310;;;17.2;100.0
48680;BME280;34475;51.658;5.634;2022-07-29T03:34:00;101310;;;17.2;100.0
48680;BME280;34475;51.658;5.634;2022-07-29T03:35:00;101300;;;17.2;100.0
48680;BME280;34475;51.658;5.634;2022-07-29T03:36:00;101300;;;17.2;100.0
48680;BME280;34475;51.658;5.634;2022-07-29T03:37:00;101300;;;17.4;100.0
48680;BME280;34475;51.658;5.634;2022-07-29T03:38:00;101300;;;17.4;100.0
48680;BME280;34475;51.658;5.634;2022-07-29T03:39:00;101300;;;17.3;100.0
48680;BME280;34475;51.658;5.634;2022-07-29T03:40:00;101300;;;17.3;100.0
48680;BME280;34475;51.658;5.634;2022-07-29T03:41:02;101300;;;17.5;100.0
48680;BME280;34475;51.658;5.634;2022-07-29T03:42:00;101300;;;17.5;100.0
48680;BME280;34475;51.658;5.634;2022-07-29T03:43:00;101300;;;17.5;100.0
48680;BME280;34475;51.658;5.634;2022-07-29T03:44:00;101300;;;17.5;100.0
48680;BME280;34475;51.658;5.634;2022-07-29T03:45:01;101300;;;17.2;100.0
48680;BME280;34475;51.658;5.634;2022-07-29T03:46:00;101300;;;17.2;100.0
48680;BME280;34475;51.658;5.634;2022-07-29T03:47:00;101300;;;17.1;100.0
48680;BME280;34475;51.658;5.634;2022-07-29T03:48:01;101300;;;17.1;100.0
48680;BME280;34475;51.658;5.634;2022-07-29T03:49:00;101310;;;17.2;100.0
48680;BME280;34475;51.658;5.634;2022-07-29T03:50:00;101310;;;17.2;100.0
48680;BME280;34475;51.658;5.634;2022-07-29T03:51:00;101310;;;17.2;100.0
48680;BME280;34475;51.658;5.634;2022-07-29T03:52:00;101310;;;17.2;100.0
48680;BME280;34475;51.658;5.634;2022-07-29T03:53:00;101310;;;17.3;100.0
48680;BME280;34475;51.658;5.634;2022-07-29T03:54:01;101310;;;17.3;100.0
48680;BME280;34475;51.658;5.634;2022-07-29T03:55:00;101320;;;17.4;100.0
48680;BME280;34475;51.658;5.634;2022-07-29T03:56:00;101320;;;17.4;100.0
48680;BME280;34475;51.658;5.634;2022-07-29T03:57:01;101320;;;17.4;100.0
48680;BME280;34475;51.658;5.634;2022-07-29T03:58:00;101320;;;17.4;100.0
48680;BME280;34475;51.658;5.634;2022-07-29T03:59:00;101310;;;17.5;100.0
48680;BME280;34475;51.658;5.634;2022-07-29T04:00:00;101310;;;17.5;100.0
48680;BME280;34475;51.658;5.634;2022-07-29T04:01:00;101320;;;17.5;100.0
48680;BME280;34475;51.658;5.634;2022-07-29T04:02:00;101320;;;17.5;100.0
48680;BME280;34475;51.658;5.634;2022-07-29T04:03:00;101320;;;17.5;100.0
48680;BME280;34475;51.658;5.634;2022-07-29T04:04:01;101320;;;17.5;100.0
48680;BME280;34475;51.658;5.634;2022-07-29T04:05:00;101330;;;17.5;100.0
48680;BME280;34475;51.658;5.634;2022-07-29T04:07:00;101320;;;17.6;100.0
48680;BME280;34475;51.658;5.634;2022-07-29T04:08:00;101320;;;17.6;100.0
48680;BME280;34475;51.658;5.634;2022-07-29T04:09:00;101330;;;17.6;100.0
48680;BME280;34475;51.658;5.634;2022-07-29T04:10:00;101330;;;17.6;100.0
48680;BME280;34475;51.658;5.634;2022-07-29T04:11:00;101320;;;17.6;100.0
48680;BME280;34475;51.658;5.634;2022-07-29T04:12:00;101320;;;17.6;100.0
48680;BME280;34475;51.658;5.634;2022-07-29T04:13:00;101330;;;17.6;100.0
48680;BME280;34475;51.658;5.634;2022-07-29T04:14:00;101330;;;17.6;100.0
48680;BME280;34475;51.658;5.634;2022-07-29T04:15:00;101320;;;17.6;100.0
48680;BME280;34475;51.658;5.634;2022-07-29T04:16:00;101320;;;17.6;100.0
48680;BME280;34475;51.658;5.634;2022-07-29T04:17:00;101320;;;17.6;100.0
48680;BME280;34475;51.658;5.634;2022-07-29T04:18:00;101320;;;17.6;100.0
48680;BME280;34475;51.658;5.634;2022-07-29T04:19:00;101320;;;17.7;100.0
48680;BME280;34475;51.658;5.634;2022-07-29T04:20:00;101320;;;17.7;100.0
48680;BME280;34475;51.658;5.634;2022-07-29T04:21:00;101320;;;17.7;100.0
48680;BME280;34475;51.658;5.634;2022-07-29T04:22:00;101320;;;17.7;100.0
48680;BME280;34475;51.658;5.634;2022-07-29T04:23:00;101320;;;17.7;100.0
48680;BME280;34475;51.658;5.634;2022-07-29T04:24:00;101320;;;17.7;100.0
48680;BME280;34475;51.658;5.634;2022-07-29T04:25:00;101320;;;17.6;100.0
48680;BME280;34475;51.658;5.634;2022-07-29T04:26:00;101320;;;17.6;100.0
48680;BME280;34475;51.658;5.634;2022-07-29T04:27:00;101320;;;17.6;100.0
48680;BME280;34475;51.658;5.634;2022-07-29T04:28:00;101320;;;17.6;100.0
48680;BME280;34475;51.658;5.634;2022-07-29T04:29:00;101320;;;17.6;100.0
48680;BME280;34475;51.658;5.634;2022-07-29T04:30:00;101320;;;17.6;100.0
48680;BME280;34475;51.658;5.634;2022-07-29T04:31:00;101320;;;17.5;100.0
48680;BME280;34475;51.658;5.634;2022-07-29T04:32:00;101320;;;17.5;100.0
48680;BME280;34475;51.658;5.634;2022-07-29T04:33:00;101310;;;17.3;100.0
48680;BME280;34475;51.658;5.634;2022-07-29T04:34:00;101310;;;17.3;100.0
48680;BME280;34475;51.658;5.634;2022-07-29T04:35:00;101310;;;17.4;100.0
48680;BME280;34475;51.658;5.634;2022-07-29T04:36:00;101310;;;17.4;100.0
48680;BME280;34475;51.658;5.634;2022-07-29T04:37:00;101310;;;17.2;100.0
48680;BME280;34475;51.658;5.634;2022-07-29T04:38:00;101310;;;17.2;100.0
48680;BME280;34475;51.658;5.634;2022-07-29T04:39:00;101320;;;17.3;100.0
48680;BME280;34475;51.658;5.634;2022-07-29T04:40:00;101320;;;17.3;100.0
48680;BME280;34475;51.658;5.634;2022-07-29T04:41:00;101320;;;17.3;100.0
48680;BME280;34475;51.658;5.634;2022-07-29T04:42:00;101320;;;17.3;100.0
48680;BME280;34475;51.658;5.634;2022-07-29T04:43:00;101320;;;17.3;100.0
48680;BME280;34475;51.658;5.634;2022-07-29T04:44:00;101320;;;17.3;100.0
48680;BME280;34475;51.658;5.634;2022-07-29T04:45:00;101320;;;17.3;100.0
48680;BME280;34475;51.658;5.634;2022-07-29T04:46:00;101320;;;17.3;100.0
48680;BME280;34475;51.658;5.634;2022-07-29T04:47:00;101320;;;17.2;100.0
48680;BME280;34475;51.658;5.634;2022-07-29T04:48:00;101320;;;17.2;100.0
48680;BME280;34475;51.658;5.634;2022-07-29T04:49:00;101320;;;17.3;100.0
48680;BME280;34475;51.658;5.634;2022-07-29T04:50:00;101320;;;17.3;100.0
48680;BME280;34475;51.658;5.634;2022-07-29T04:51:00;101320;;;17.4;100.0
48680;BME280;34475;51.658;5.634;2022-07-29T04:52:00;101320;;;17.4;100.0
48680;BME280;34475;51.658;5.634;2022-07-29T04:53:00;101330;;;17.4;100.0
48680;BME280;34475;51.658;5.634;2022-07-29T04:54:00;101330;;;17.4;100.0
48680;BME280;34475;51.658;5.634;2022-07-29T04:55:00;101330;;;17.3;100.0
48680;BME280;34475;51.658;5.634;2022-07-29T04:56:00;101330;;;17.3;100.0
48680;BME280;34475;51.658;5.634;2022-07-29T04:57:00;101330;;;17.4;100.0
48680;BME280;34475;51.658;5.634;2022-07-29T04:58:00;101330;;;17.4;100.0
48680;BME280;34475;51.658;5.634;2022-07-29T04:59:00;101340;;;17.5;100.0
48680;BME280;34475;51.658;5.634;2022-07-29T05:00:00;101340;;;17.5;100.0
48680;BME280;34475;51.658;5.634;2022-07-29T05:01:00;101360;;;17.4;100.0
48680;BME280;34475;51.658;5.634;2022-07-29T05:02:00;101360;;;17.4;100.0
48680;BME280;34475;51.658;5.634;2022-07-29T05:03:00;101360;;;17.6;100.0
48680;BME280;34475;51.658;5.634;2022-07-29T05:04:00;101360;;;17.6;100.0
48680;BME280;34475;51.658;5.634;2022-07-29T05:05:00;101360;;;17.5;100.0
48680;BME280;34475;51.658;5.634;2022-07-29T05:06:00;101360;;;17.5;100.0
48680;BME280;34475;51.658;5.634;2022-07-29T05:07:00;101360;;;17.4;100.0
48680;BME280;34475;51.658;5.634;2022-07-29T05:08:00;101360;;;17.4;100.0
48680;BME280;34475;51.658;5.634;2022-07-29T05:09:00;101360;;;17.4;100.0
48680;BME280;34475;51.658;5.634;2022-07-29T05:10:00;101360;;;17.4;100.0
48680;BME280;34475;51.658;5.634;2022-07-29T05:11:00;101350;;;17.2;100.0
48680;BME280;34475;51.658;5.634;2022-07-29T05:12:00;101350;;;17.2;100.0
48680;BME280;34475;51.658;5.634;2022-07-29T05:13:00;101350;;;17.1;100.0
48680;BME280;34475;51.658;5.634;2022-07-29T05:14:00;101350;;;17.1;100.0
48680;BME280;34475;51.658;5.634;2022-07-29T05:15:00;101350;;;17.1;100.0
48680;BME280;34475;51.658;5.634;2022-07-29T05:16:00;101350;;;17.1;100.0
48680;BME280;34475;51.658;5.634;2022-07-29T05:17:00;101350;;;17.1;100.0
48680;BME280;34475;51.658;5.634;2022-07-29T05:18:00;101350;;;17.1;100.0
48680;BME280;34475;51.658;5.634;2022-07-29T05:19:00;101360;;;17.0;100.0
48680;BME280;34475;51.658;5.634;2022-07-29T05:20:00;101360;;;17.0;100.0
48680;BME280;34475;51.658;5.634;2022-07-29T05:21:00;101360;;;17.0;100.0
48680;BME280;34475;51.658;5.634;2022-07-29T05:22:00;101360;;;17.0;100.0
48680;BME280;34475;51.658;5.634;2022-07-29T05:23:00;101350;;;17.1;100.0
48680;BME280;34475;51.658;5.634;2022-07-29T05:24:00;101350;;;17.1;100.0
48680;BME280;34475;51.658;5.634;2022-07-29T05:25:00;101360;;;17.0;100.0
48680;BME280;34475;51.658;5.634;2022-07-29T05:26:00;101360;;;17.0;100.0
48680;BME280;34475;51.658;5.634;2022-07-29T05:27:00;101360;;;17.0;100.0
48680;BME280;34475;51.658;5.634;2022-07-29T05:28:00;101360;;;17.0;100.0
48680;BME280;34475;51.658;5.634;2022-07-29T05:29:00;101370;;;17.0;100.0
48680;BME280;34475;51.658;5.634;2022-07-29T05:30:00;101370;;;17.0;100.0
48680;BME280;34475;51.658;5.634;2022-07-29T05:31:00;101370;;;17.0;100.0
48680;BME280;34475;51.658;5.634;2022-07-29T05:32:00;101370;;;17.0;100.0
48680;BME280;34475;51.658;5.634;2022-07-29T05:33:00;101370;;;17.0;100.0
48680;BME280;34475;51.658;5.634;2022-07-29T05:34:00;101370;;;17.0;100.0
48680;BME280;34475;51.658;5.634;2022-07-29T05:35:00;101370;;;17.1;100.0
48680;BME280;34475;51.658;5.634;2022-07-29T05:36:00;101370;;;17.1;100.0
48680;BME280;34475;51.658;5.634;2022-07-29T05:37:00;101360;;;16.9;100.0
48680;BME280;34475;51.658;5.634;2022-07-29T05:38:00;101360;;;16.9;100.0
48680;BME280;34475;51.658;5.634;2022-07-29T05:39:00;101360;;;16.8;100.0
48680;BME280;34475;51.658;5.634;2022-07-29T05:40:00;101360;;;16.8;100.0
48680;BME280;34475;51.658;5.634;2022-07-29T05:41:00;101360;;;16.9;100.0
48680;BME280;34475;51.658;5.634;2022-07-29T05:42:00;101360;;;16.9;100.0
48680;BME280;34475;51.658;5.634;2022-07-29T05:43:00;101360;;;16.9;100.0
48680;BME280;34475;51.658;5.634;2022-07-29T05:44:00;101360;;;16.9;100.0
48680;BME280;34475;51.658;5.634;2022-07-29T05:45:00;101360;;;16.9;100.0
48680;BME280;34475;51.658;5.634;2022-07-29T05:46:00;101360;;;16.9;100.0